sensor_id;sensor_type;location;lat;lon;timestamp;P1;durP1;ratioP1;P2;durP2;ratioP2
3677;SDS011;1855;50.934;6.958;2023-04-03T00:01:37;4.07;;;3.20;;
3677;SDS011;1855;50.934;6.958;2023-04-03T00:04:04;4.00;;;3.05;;
3677;SDS011;1855;50.934;6.958;2023-04-03T00:06:31;3.70;;;3.30;;
3677;SDS011;1855;50.934;6.958;2023-04-03T00:09:00;3.38;;;3.08;;
3677;SDS011;1855;50.934;6.958;2023-04-03T00:11:26;3.53;;;3.00;;
3677;SDS011;1855;50.934;6.958;2023-04-03T00:13:53;3.63;;;3.30;;
3677;SDS011;1855;50.934;6.958;2023-04-03T00:16:20;4.03;;;3.20;;
3677;SDS011;1855;50.934;6.958;2023-04-03T00:18:46;4.28;;;3.20;;
3677;SDS011;1855;50.934;6.958;2023-04-03T00:21:13;3.20;;;2.90;;
3677;SDS011;1855;50.934;6.958;2023-04-03T00:23:40;3.30;;;3.00;;
3677;SDS011;1855;50.934;6.958;2023-04-03T00:26:08;3.50;;;3.20;;
3677;SDS011;1855;50.934;6.958;2023-04-03T00:28:35;4.53;;;2.90;;
3677;SDS011;1855;50.934;6.958;2023-04-03T00:31:02;3.55;;;3.25;;
3677;SDS011;1855;50.934;6.958;2023-04-03T00:33:29;3.70;;;3.40;;
3677;SDS011;1855;50.934;6.958;2023-04-03T00:35:56;3.90;;;3.10;;
3677;SDS011;1855;50.934;6.958;2023-04-03T00:38:22;3.90;;;3.53;;
3677;SDS011;1855;50.934;6.958;2023-04-03T00:40:49;3.88;;;3.47;;
3677;SDS011;1855;50.934;6.958;2023-04-03T00:43:18;3.60;;;3.30;;
3677;SDS011;1855;50.934;6.958;2023-04-03T00:45:47;4.50;;;4.10;;
3677;SDS011;1855;50.934;6.958;2023-04-03T00:48:15;3.87;;;3.30;;
3677;SDS011;1855;50.934;6.958;2023-04-03T00:50:45;4.03;;;3.63;;
3677;SDS011;1855;50.934;6.958;2023-04-03T00:53:14;3.80;;;3.50;;
3677;SDS011;1855;50.934;6.958;2023-04-03T00:55:44;4.72;;;3.80;;
3677;SDS011;1855;50.934;6.958;2023-04-03T00:58:12;4.10;;;3.80;;
3677;SDS011;1855;50.934;6.958;2023-04-03T01:00:43;3.90;;;3.60;;
3677;SDS011;1855;50.934;6.958;2023-04-03T01:03:21;3.72;;;3.42;;
3677;SDS011;1855;50.934;6.958;2023-04-03T01:05:47;3.85;;;3.47;;
3677;SDS011;1855;50.934;6.958;2023-04-03T01:08:14;3.40;;;3.10;;
3677;SDS011;1855;50.934;6.958;2023-04-03T01:10:41;2.92;;;2.72;;
3677;SDS011;1855;50.934;6.958;2023-04-03T01:13:19;3.40;;;2.90;;
3677;SDS011;1855;50.934;6.958;2023-04-03T01:15:50;2.75;;;2.55;;
3677;SDS011;1855;50.934;6.958;2023-04-03T01:18:17;4.00;;;3.47;;
3677;SDS011;1855;50.934;6.958;2023-04-03T01:24:02;2.55;;;2.35;;
3677;SDS011;1855;50.934;6.958;2023-04-03T01:26:36;2.80;;;2.50;;
3677;SDS011;1855;50.934;6.958;2023-04-03T01:29:02;2.50;;;2.30;;
3677;SDS011;1855;50.934;6.958;2023-04-03T01:34:09;2.65;;;2.38;;
3677;SDS011;1855;50.934;6.958;2023-04-03T01:36:36;3.03;;;2.72;;
3677;SDS011;1855;50.934;6.958;2023-04-03T01:39:03;2.70;;;2.50;;
3677;SDS011;1855;50.934;6.958;2023-04-03T01:41:29;2.80;;;2.60;;
3677;SDS011;1855;50.934;6.958;2023-04-03T01:43:57;2.95;;;2.65;;
3677;SDS011;1855;50.934;6.958;2023-04-03T01:46:23;2.50;;;2.30;;
3677;SDS011;1855;50.934;6.958;2023-04-03T01:48:51;3.03;;;2.70;;
3677;SDS011;1855;50.934;6.958;2023-04-03T01:51:18;3.45;;;3.08;;
3677;SDS011;1855;50.934;6.958;2023-04-03T01:53:45;3.42;;;2.85;;
3677;SDS011;1855;50.934;6.958;2023-04-03T01:56:12;3.80;;;3.40;;
3677;SDS011;1855;50.934;6.958;2023-04-03T01:58:38;4.00;;;3.50;;
3677;SDS011;1855;50.934;6.958;2023-04-03T02:01:05;3.70;;;3.40;;
3677;SDS011;1855;50.934;6.958;2023-04-03T02:03:32;4.05;;;3.75;;
3677;SDS011;1855;50.934;6.958;2023-04-03T02:06:01;4.22;;;3.90;;
3677;SDS011;1855;50.934;6.958;2023-04-03T02:08:27;4.65;;;4.25;;
3677;SDS011;1855;50.934;6.958;2023-04-03T02:10:54;4.20;;;3.80;;
3677;SDS011;1855;50.934;6.958;2023-04-03T02:13:21;4.20;;;3.90;;
3677;SDS011;1855;50.934;6.958;2023-04-03T02:15:47;4.20;;;3.90;;
3677;SDS011;1855;50.934;6.958;2023-04-03T02:18:14;4.40;;;4.10;;
3677;SDS011;1855;50.934;6.958;2023-04-03T02:20:41;4.40;;;4.00;;
3677;SDS011;1855;50.934;6.958;2023-04-03T02:23:09;4.00;;;3.70;;
3677;SDS011;1855;50.934;6.958;2023-04-03T02:25:36;4.50;;;4.10;;
3677;SDS011;1855;50.934;6.958;2023-04-03T02:28:03;4.68;;;4.38;;
3677;SDS011;1855;50.934;6.958;2023-04-03T02:30:30;4.57;;;4.18;;
3677;SDS011;1855;50.934;6.958;2023-04-03T02:32:57;4.40;;;4.00;;
3677;SDS011;1855;50.934;6.958;2023-04-03T02:35:23;4.53;;;4.13;;
3677;SDS011;1855;50.934;6.958;2023-04-03T02:37:50;4.85;;;4.40;;
3677;SDS011;1855;50.934;6.958;2023-04-03T02:40:18;4.90;;;4.20;;
3677;SDS011;1855;50.934;6.958;2023-04-03T02:42:45;4.20;;;3.90;;
3677;SDS011;1855;50.934;6.958;2023-04-03T02:45:12;4.97;;;4.17;;
3677;SDS011;1855;50.934;6.958;2023-04-03T02:47:38;4.70;;;4.30;;
3677;SDS011;1855;50.934;6.958;2023-04-03T02:50:05;4.15;;;3.83;;
3677;SDS011;1855;50.934;6.958;2023-04-03T02:52:32;4.40;;;4.00;;
3677;SDS011;1855;50.934;6.958;2023-04-03T02:54:59;4.90;;;4.35;;
3677;SDS011;1855;50.934;6.958;2023-04-03T02:57:27;5.68;;;4.80;;
3677;SDS011;1855;50.934;6.958;2023-04-03T02:59:53;4.50;;;4.10;;
3677;SDS011;1855;50.934;6.958;2023-04-03T03:02:20;4.18;;;3.78;;
3677;SDS011;1855;50.934;6.958;2023-04-03T03:04:47;4.45;;;4.15;;
3677;SDS011;1855;50.934;6.958;2023-04-03T03:07:14;6.18;;;4.40;;
3677;SDS011;1855;50.934;6.958;2023-04-03T03:09:40;4.90;;;4.50;;
3677;SDS011;1855;50.934;6.958;2023-04-03T03:12:07;4.70;;;4.30;;
3677;SDS011;1855;50.934;6.958;2023-04-03T03:14:35;5.20;;;4.80;;
3677;SDS011;1855;50.934;6.958;2023-04-03T03:17:02;4.45;;;4.15;;
3677;SDS011;1855;50.934;6.958;2023-04-03T03:19:29;4.45;;;4.07;;
3677;SDS011;1855;50.934;6.958;2023-04-03T03:21:56;4.43;;;4.03;;
3677;SDS011;1855;50.934;6.958;2023-04-03T03:24:22;4.32;;;3.92;;
3677;SDS011;1855;50.934;6.958;2023-04-03T03:26:49;4.13;;;3.77;;
3677;SDS011;1855;50.934;6.958;2023-04-03T03:29:16;4.30;;;4.00;;
3677;SDS011;1855;50.934;6.958;2023-04-03T03:31:44;4.00;;;3.70;;
3677;SDS011;1855;50.934;6.958;2023-04-03T03:34:11;3.60;;;3.40;;
3677;SDS011;1855;50.934;6.958;2023-04-03T03:36:38;4.50;;;4.10;;
3677;SDS011;1855;50.934;6.958;2023-04-03T03:39:05;4.40;;;4.00;;
3677;SDS011;1855;50.934;6.958;2023-04-03T03:41:32;3.80;;;3.50;;
3677;SDS011;1855;50.934;6.958;2023-04-03T03:43:59;4.30;;;3.90;;
3677;SDS011;1855;50.934;6.958;2023-04-03T03:46:26;3.90;;;3.60;;
3677;SDS011;1855;50.934;6.958;2023-04-03T03:48:54;4.30;;;3.85;;
3677;SDS011;1855;50.934;6.958;2023-04-03T03:51:21;3.90;;;3.47;;
3677;SDS011;1855;50.934;6.958;2023-04-03T03:53:47;5.35;;;3.30;;
3677;SDS011;1855;50.934;6.958;2023-04-03T03:56:14;3.80;;;3.40;;
3677;SDS011;1855;50.934;6.958;2023-04-03T03:58:41;3.72;;;3.40;;
3677;SDS011;1855;50.934;6.958;2023-04-03T04:01:07;4.45;;;3.38;;
3677;SDS011;1855;50.934;6.958;2023-04-03T04:03:34;3.80;;;3.50;;
3677;SDS011;1855;50.934;6.958;2023-04-03T04:06:03;4.55;;;3.38;;
3677;SDS011;1855;50.934;6.958;2023-04-03T04:08:30;3.50;;;3.20;;
3677;SDS011;1855;50.934;6.958;2023-04-03T04:10:56;4.47;;;3.50;;
3677;SDS011;1855;50.934;6.958;2023-04-03T04:13:23;4.47;;;3.45;;
3677;SDS011;1855;50.934;6.958;2023-04-03T04:15:50;3.92;;;3.30;;
3677;SDS011;1855;50.934;6.958;2023-04-03T04:18:17;4.30;;;3.50;;
3677;SDS011;1855;50.934;6.958;2023-04-03T04:20:45;3.72;;;3.40;;
3677;SDS011;1855;50.934;6.958;2023-04-03T04:23:13;3.73;;;3.43;;
3677;SDS011;1855;50.934;6.958;2023-04-03T04:25:40;4.00;;;3.25;;
3677;SDS011;1855;50.934;6.958;2023-04-03T04:28:06;4.15;;;3.20;;
3677;SDS011;1855;50.934;6.958;2023-04-03T04:30:33;4.25;;;3.50;;
3677;SDS011;1855;50.934;6.958;2023-04-03T04:33:00;4.00;;;3.20;;
3677;SDS011;1855;50.934;6.958;2023-04-03T04:35:27;3.40;;;3.10;;
3677;SDS011;1855;50.934;6.958;2023-04-03T04:37:53;3.50;;;3.00;;
3677;SDS011;1855;50.934;6.958;2023-04-03T04:40:21;4.00;;;3.03;;
3677;SDS011;1855;50.934;6.958;2023-04-03T04:42:48;3.20;;;3.00;;
3677;SDS011;1855;50.934;6.958;2023-04-03T04:45:15;3.83;;;3.20;;
3677;SDS011;1855;50.934;6.958;2023-04-03T04:47:42;4.00;;;3.10;;
3677;SDS011;1855;50.934;6.958;2023-04-03T04:50:09;3.40;;;3.10;;
3677;SDS011;1855;50.934;6.958;2023-04-03T04:52:37;3.78;;;3.10;;
3677;SDS011;1855;50.934;6.958;2023-04-03T04:55:04;4.25;;;3.22;;
3677;SDS011;1855;50.934;6.958;2023-04-03T04:57:33;3.55;;;3.20;;
3677;SDS011;1855;50.934;6.958;2023-04-03T05:00:00;3.30;;;3.00;;
3677;SDS011;1855;50.934;6.958;2023-04-03T05:02:27;4.28;;;2.97;;
3677;SDS011;1855;50.934;6.958;2023-04-03T05:04:54;4.47;;;3.00;;
3677;SDS011;1855;50.934;6.958;2023-04-03T05:07:21;4.20;;;3.00;;
3677;SDS011;1855;50.934;6.958;2023-04-03T05:09:48;4.53;;;3.00;;
3677;SDS011;1855;50.934;6.958;2023-04-03T05:12:14;3.85;;;2.90;;
3677;SDS011;1855;50.934;6.958;2023-04-03T05:14:43;4.20;;;2.80;;
3677;SDS011;1855;50.934;6.958;2023-04-03T05:17:10;3.20;;;2.60;;
3677;SDS011;1855;50.934;6.958;2023-04-03T05:19:36;5.13;;;2.97;;
3677;SDS011;1855;50.934;6.958;2023-04-03T05:22:03;4.45;;;2.80;;
3677;SDS011;1855;50.934;6.958;2023-04-03T05:24:30;2.95;;;2.70;;
3677;SDS011;1855;50.934;6.958;2023-04-03T05:26:56;3.08;;;2.72;;
3677;SDS011;1855;50.934;6.958;2023-04-03T05:29:23;3.72;;;2.90;;
3677;SDS011;1855;50.934;6.958;2023-04-03T05:31:51;3.90;;;2.97;;
3677;SDS011;1855;50.934;6.958;2023-04-03T05:34:18;3.95;;;3.00;;
3677;SDS011;1855;50.934;6.958;2023-04-03T05:36:45;3.42;;;2.70;;
3677;SDS011;1855;50.934;6.958;2023-04-03T05:39:11;3.47;;;2.47;;
3677;SDS011;1855;50.934;6.958;2023-04-03T05:41:38;3.13;;;2.60;;
3677;SDS011;1855;50.934;6.958;2023-04-03T05:44:05;2.78;;;2.50;;
3677;SDS011;1855;50.934;6.958;2023-04-03T05:46:32;3.40;;;2.70;;
3677;SDS011;1855;50.934;6.958;2023-04-03T05:49:00;3.30;;;2.60;;
3677;SDS011;1855;50.934;6.958;2023-04-03T05:51:28;3.95;;;3.38;;
3677;SDS011;1855;50.934;6.958;2023-04-03T05:53:59;6.15;;;3.55;;
3677;SDS011;1855;50.934;6.958;2023-04-03T05:56:30;2.95;;;2.60;;
3677;SDS011;1855;50.934;6.958;2023-04-03T05:58:57;4.30;;;2.50;;
3677;SDS011;1855;50.934;6.958;2023-04-03T06:01:24;3.08;;;2.50;;
3677;SDS011;1855;50.934;6.958;2023-04-03T06:03:51;2.97;;;2.67;;
3677;SDS011;1855;50.934;6.958;2023-04-03T06:06:20;3.65;;;2.67;;
3677;SDS011;1855;50.934;6.958;2023-04-03T06:08:47;4.75;;;2.70;;
3677;SDS011;1855;50.934;6.958;2023-04-03T06:11:13;2.93;;;2.37;;
3677;SDS011;1855;50.934;6.958;2023-04-03T06:13:40;3.95;;;2.42;;
3677;SDS011;1855;50.934;6.958;2023-04-03T06:16:08;2.60;;;2.30;;
3677;SDS011;1855;50.934;6.958;2023-04-03T06:18:35;3.35;;;2.50;;
3677;SDS011;1855;50.934;6.958;2023-04-03T06:21:02;3.35;;;2.10;;
3677;SDS011;1855;50.934;6.958;2023-04-03T06:23:31;4.28;;;2.50;;
3677;SDS011;1855;50.934;6.958;2023-04-03T06:25:57;4.63;;;2.50;;
3677;SDS011;1855;50.934;6.958;2023-04-03T06:28:24;3.78;;;2.42;;
3677;SDS011;1855;50.934;6.958;2023-04-03T06:30:51;4.32;;;2.80;;
3677;SDS011;1855;50.934;6.958;2023-04-03T06:33:18;3.78;;;2.22;;
3677;SDS011;1855;50.934;6.958;2023-04-03T06:35:44;2.40;;;2.20;;
3677;SDS011;1855;50.934;6.958;2023-04-03T06:38:11;4.80;;;2.70;;
3677;SDS011;1855;50.934;6.958;2023-04-03T06:40:39;3.90;;;2.40;;
3677;SDS011;1855;50.934;6.958;2023-04-03T06:43:06;4.95;;;2.40;;
3677;SDS011;1855;50.934;6.958;2023-04-03T06:45:33;3.25;;;1.90;;
3677;SDS011;1855;50.934;6.958;2023-04-03T06:48:01;2.10;;;1.90;;
3677;SDS011;1855;50.934;6.958;2023-04-03T06:50:27;3.30;;;2.00;;
3677;SDS011;1855;50.934;6.958;2023-04-03T06:52:54;3.50;;;2.35;;
3677;SDS011;1855;50.934;6.958;2023-04-03T06:55:21;3.58;;;2.10;;
3677;SDS011;1855;50.934;6.958;2023-04-03T06:57:49;3.35;;;2.10;;
3677;SDS011;1855;50.934;6.958;2023-04-03T07:00:17;4.18;;;2.20;;
3677;SDS011;1855;50.934;6.958;2023-04-03T07:02:44;3.20;;;2.00;;
3677;SDS011;1855;50.934;6.958;2023-04-03T07:05:11;2.20;;;1.77;;
3677;SDS011;1855;50.934;6.958;2023-04-03T07:07:38;2.65;;;1.90;;
3677;SDS011;1855;50.934;6.958;2023-04-03T07:10:06;2.27;;;1.90;;
3677;SDS011;1855;50.934;6.958;2023-04-03T07:12:34;5.60;;;2.60;;
3677;SDS011;1855;50.934;6.958;2023-04-03T07:15:02;3.20;;;2.20;;
3677;SDS011;1855;50.934;6.958;2023-04-03T07:17:30;5.15;;;1.83;;
3677;SDS011;1855;50.934;6.958;2023-04-03T07:19:57;2.30;;;1.50;;
3677;SDS011;1855;50.934;6.958;2023-04-03T07:22:24;3.20;;;1.90;;
3677;SDS011;1855;50.934;6.958;2023-04-03T07:24:50;3.08;;;1.80;;
3677;SDS011;1855;50.934;6.958;2023-04-03T07:27:17;3.78;;;1.95;;
3677;SDS011;1855;50.934;6.958;2023-04-03T07:29:44;3.47;;;1.90;;
3677;SDS011;1855;50.934;6.958;2023-04-03T07:32:14;5.38;;;2.05;;
3677;SDS011;1855;50.934;6.958;2023-04-03T07:34:42;4.28;;;2.17;;
3677;SDS011;1855;50.934;6.958;2023-04-03T07:37:08;3.08;;;1.80;;
3677;SDS011;1855;50.934;6.958;2023-04-03T07:39:35;2.33;;;1.63;;
3677;SDS011;1855;50.934;6.958;2023-04-03T07:42:02;2.75;;;2.00;;
3677;SDS011;1855;50.934;6.958;2023-04-03T07:44:29;4.03;;;1.80;;
3677;SDS011;1855;50.934;6.958;2023-04-03T07:46:57;3.17;;;1.80;;
3677;SDS011;1855;50.934;6.958;2023-04-03T07:49:26;3.60;;;2.30;;
3677;SDS011;1855;50.934;6.958;2023-04-03T07:51:53;2.60;;;1.80;;
3677;SDS011;1855;50.934;6.958;2023-04-03T07:54:20;2.40;;;1.60;;
3677;SDS011;1855;50.934;6.958;2023-04-03T07:56:47;2.78;;;2.10;;
3677;SDS011;1855;50.934;6.958;2023-04-03T07:59:14;2.60;;;1.80;;
3677;SDS011;1855;50.934;6.958;2023-04-03T08:01:41;4.90;;;1.90;;
3677;SDS011;1855;50.934;6.958;2023-04-03T08:04:07;4.22;;;2.00;;
3677;SDS011;1855;50.934;6.958;2023-04-03T08:06:35;2.67;;;1.70;;
3677;SDS011;1855;50.934;6.958;2023-04-03T08:09:02;4.93;;;2.30;;
3677;SDS011;1855;50.934;6.958;2023-04-03T08:11:30;2.83;;;1.80;;
3677;SDS011;1855;50.934;6.958;2023-04-03T08:13:56;5.30;;;2.08;;
3677;SDS011;1855;50.934;6.958;2023-04-03T08:16:24;3.40;;;1.80;;
3677;SDS011;1855;50.934;6.958;2023-04-03T08:18:51;3.95;;;2.30;;
3677;SDS011;1855;50.934;6.958;2023-04-03T08:21:18;3.33;;;2.00;;
3677;SDS011;1855;50.934;6.958;2023-04-03T08:23:47;2.80;;;1.50;;
3677;SDS011;1855;50.934;6.958;2023-04-03T08:26:16;2.42;;;1.60;;
3677;SDS011;1855;50.934;6.958;2023-04-03T08:28:43;3.75;;;1.80;;
3677;SDS011;1855;50.934;6.958;2023-04-03T08:31:11;3.60;;;1.70;;
3677;SDS011;1855;50.934;6.958;2023-04-03T08:33:39;2.27;;;1.37;;
3677;SDS011;1855;50.934;6.958;2023-04-03T08:36:07;1.95;;;1.20;;
3677;SDS011;1855;50.934;6.958;2023-04-03T08:38:41;2.35;;;1.40;;
3677;SDS011;1855;50.934;6.958;2023-04-03T08:41:13;2.72;;;1.40;;
3677;SDS011;1855;50.934;6.958;2023-04-03T08:43:46;1.60;;;1.00;;
3677;SDS011;1855;50.934;6.958;2023-04-03T08:46:23;4.03;;;1.60;;
3677;SDS011;1855;50.934;6.958;2023-04-03T08:49:00;2.22;;;1.40;;
3677;SDS011;1855;50.934;6.958;2023-04-03T08:51:26;3.80;;;1.20;;
3677;SDS011;1855;50.934;6.958;2023-04-03T08:53:56;4.00;;;1.85;;
3677;SDS011;1855;50.934;6.958;2023-04-03T08:56:28;2.83;;;1.20;;
3677;SDS011;1855;50.934;6.958;2023-04-03T08:58:57;2.15;;;1.33;;
3677;SDS011;1855;50.934;6.958;2023-04-03T09:01:27;2.25;;;1.10;;
3677;SDS011;1855;50.934;6.958;2023-04-03T09:04:00;2.20;;;1.50;;
3677;SDS011;1855;50.934;6.958;2023-04-03T09:06:28;1.98;;;1.27;;
3677;SDS011;1855;50.934;6.958;2023-04-03T09:09:02;2.00;;;1.20;;
3677;SDS011;1855;50.934;6.958;2023-04-03T09:11:41;1.58;;;1.25;;
3677;SDS011;1855;50.934;6.958;2023-04-03T09:14:14;2.10;;;1.20;;
3677;SDS011;1855;50.934;6.958;2023-04-03T09:16:47;3.30;;;1.20;;
3677;SDS011;1855;50.934;6.958;2023-04-03T09:19:20;1.70;;;1.20;;
3677;SDS011;1855;50.934;6.958;2023-04-03T09:21:54;2.17;;;1.10;;
3677;SDS011;1855;50.934;6.958;2023-04-03T09:24:23;2.22;;;1.10;;
3677;SDS011;1855;50.934;6.958;2023-04-03T09:26:53;2.33;;;1.30;;
3677;SDS011;1855;50.934;6.958;2023-04-03T09:29:25;2.65;;;1.30;;
3677;SDS011;1855;50.934;6.958;2023-04-03T09:31:52;2.10;;;1.20;;
3677;SDS011;1855;50.934;6.958;2023-04-03T09:34:25;2.80;;;1.20;;
3677;SDS011;1855;50.934;6.958;2023-04-03T09:36:54;3.90;;;1.40;;
3677;SDS011;1855;50.934;6.958;2023-04-03T09:39:22;2.83;;;1.42;;
3677;SDS011;1855;50.934;6.958;2023-04-03T09:41:57;3.33;;;1.40;;
3677;SDS011;1855;50.934;6.958;2023-04-03T09:44:27;3.38;;;1.30;;
3677;SDS011;1855;50.934;6.958;2023-04-03T09:46:55;2.70;;;1.30;;
3677;SDS011;1855;50.934;6.958;2023-04-03T09:49:22;2.00;;;1.30;;
3677;SDS011;1855;50.934;6.958;2023-04-03T09:51:49;2.40;;;1.10;;
3677;SDS011;1855;50.934;6.958;2023-04-03T09:54:33;2.10;;;1.10;;
3677;SDS011;1855;50.934;6.958;2023-04-03T09:57:08;1.80;;;0.95;;
3677;SDS011;1855;50.934;6.958;2023-04-03T09:59:40;2.33;;;1.00;;
3677;SDS011;1855;50.934;6.958;2023-04-03T10:02:21;1.77;;;1.30;;
3677;SDS011;1855;50.934;6.958;2023-04-03T10:04:54;1.52;;;1.00;;
3677;SDS011;1855;50.934;6.958;2023-04-03T10:07:26;1.70;;;1.00;;
3677;SDS011;1855;50.934;6.958;2023-04-03T10:09:55;2.80;;;0.90;;
3677;SDS011;1855;50.934;6.958;2023-04-03T10:12:24;2.00;;;0.80;;
3677;SDS011;1855;50.934;6.958;2023-04-03T10:14:54;4.85;;;1.50;;
3677;SDS011;1855;50.934;6.958;2023-04-03T10:17:24;1.90;;;1.00;;
3677;SDS011;1855;50.934;6.958;2023-04-03T10:20:00;2.47;;;1.48;;
3677;SDS011;1855;50.934;6.958;2023-04-03T10:22:34;1.45;;;1.10;;
3677;SDS011;1855;50.934;6.958;2023-04-03T10:25:10;1.67;;;0.80;;
3677;SDS011;1855;50.934;6.958;2023-04-03T10:27:47;1.50;;;1.00;;
3677;SDS011;1855;50.934;6.958;2023-04-03T10:30:21;1.65;;;1.20;;
3677;SDS011;1855;50.934;6.958;2023-04-03T10:33:05;1.77;;;1.00;;
3677;SDS011;1855;50.934;6.958;2023-04-03T10:35:45;1.73;;;1.30;;
3677;SDS011;1855;50.934;6.958;2023-04-03T10:38:23;2.43;;;1.00;;
3677;SDS011;1855;50.934;6.958;2023-04-03T10:40:59;1.42;;;1.00;;
3677;SDS011;1855;50.934;6.958;2023-04-03T10:43:36;1.23;;;1.00;;
3677;SDS011;1855;50.934;6.958;2023-04-03T10:46:09;1.65;;;0.93;;
3677;SDS011;1855;50.934;6.958;2023-04-03T10:48:46;1.10;;;1.00;;
3677;SDS011;1855;50.934;6.958;2023-04-03T10:51:24;1.58;;;1.10;;
3677;SDS011;1855;50.934;6.958;2023-04-03T10:53:56;2.10;;;1.20;;
3677;SDS011;1855;50.934;6.958;2023-04-03T10:56:29;1.70;;;0.80;;
3677;SDS011;1855;50.934;6.958;2023-04-03T10:59:01;1.50;;;0.80;;
3677;SDS011;1855;50.934;6.958;2023-04-03T11:01:35;1.90;;;1.00;;
3677;SDS011;1855;50.934;6.958;2023-04-03T11:04:06;1.27;;;0.90;;
3677;SDS011;1855;50.934;6.958;2023-04-03T11:06:35;2.40;;;0.80;;
3677;SDS011;1855;50.934;6.958;2023-04-03T11:09:07;2.25;;;1.00;;
3677;SDS011;1855;50.934;6.958;2023-04-03T11:11:44;1.80;;;0.90;;
3677;SDS011;1855;50.934;6.958;2023-04-03T11:14:14;1.58;;;1.10;;
3677;SDS011;1855;50.934;6.958;2023-04-03T11:16:50;1.67;;;1.00;;
3677;SDS011;1855;50.934;6.958;2023-04-03T11:19:27;1.50;;;0.80;;
3677;SDS011;1855;50.934;6.958;2023-04-03T11:22:01;1.20;;;0.90;;
3677;SDS011;1855;50.934;6.958;2023-04-03T11:24:34;1.80;;;1.00;;
3677;SDS011;1855;50.934;6.958;2023-04-03T11:27:05;1.67;;;1.10;;
3677;SDS011;1855;50.934;6.958;2023-04-03T11:29:34;2.60;;;1.00;;
3677;SDS011;1855;50.934;6.958;2023-04-03T11:32:08;1.70;;;0.98;;
3677;SDS011;1855;50.934;6.958;2023-04-03T11:34:43;2.00;;;1.35;;
3677;SDS011;1855;50.934;6.958;2023-04-03T11:37:13;2.15;;;1.10;;
3677;SDS011;1855;50.934;6.958;2023-04-03T11:39:48;1.65;;;1.17;;
3677;SDS011;1855;50.934;6.958;2023-04-03T11:42:24;2.80;;;1.10;;
3677;SDS011;1855;50.934;6.958;2023-04-03T11:47:59;1.33;;;0.90;;
3677;SDS011;1855;50.934;6.958;2023-04-03T11:50:37;2.00;;;1.00;;
3677;SDS011;1855;50.934;6.958;2023-04-03T11:53:25;1.42;;;0.80;;
3677;SDS011;1855;50.934;6.958;2023-04-03T11:55:59;2.10;;;0.80;;
3677;SDS011;1855;50.934;6.958;2023-04-03T11:58:30;1.50;;;1.20;;
3677;SDS011;1855;50.934;6.958;2023-04-03T12:01:02;0.95;;;0.63;;
3677;SDS011;1855;50.934;6.958;2023-04-03T12:04:07;2.35;;;0.90;;
3677;SDS011;1855;50.934;6.958;2023-04-03T12:12:57;1.55;;;0.90;;
3677;SDS011;1855;50.934;6.958;2023-04-03T12:18:37;2.33;;;0.80;;
3677;SDS011;1855;50.934;6.958;2023-04-03T12:21:12;1.50;;;0.90;;
3677;SDS011;1855;50.934;6.958;2023-04-03T12:26:26;1.70;;;0.80;;
3677;SDS011;1855;50.934;6.958;2023-04-03T12:28:57;1.80;;;1.08;;
3677;SDS011;1855;50.934;6.958;2023-04-03T12:31:25;1.30;;;0.75;;
3677;SDS011;1855;50.934;6.958;2023-04-03T12:34:05;1.40;;;0.90;;
3677;SDS011;1855;50.934;6.958;2023-04-03T12:36:52;1.00;;;0.80;;
3677;SDS011;1855;50.934;6.958;2023-04-03T12:39:33;1.88;;;1.00;;
3677;SDS011;1855;50.934;6.958;2023-04-03T12:42:21;1.20;;;0.80;;
3677;SDS011;1855;50.934;6.958;2023-04-03T12:44:59;1.80;;;0.88;;
3677;SDS011;1855;50.934;6.958;2023-04-03T12:47:35;1.50;;;0.80;;
3677;SDS011;1855;50.934;6.958;2023-04-03T12:50:03;1.95;;;0.95;;
3677;SDS011;1855;50.934;6.958;2023-04-03T12:52:34;1.88;;;0.90;;
3677;SDS011;1855;50.934;6.958;2023-04-03T12:55:14;1.73;;;1.00;;
3677;SDS011;1855;50.934;6.958;2023-04-03T12:57:42;2.10;;;1.00;;
3677;SDS011;1855;50.934;6.958;2023-04-03T13:00:20;1.48;;;0.80;;
3677;SDS011;1855;50.934;6.958;2023-04-03T13:02:54;1.98;;;1.15;;
3677;SDS011;1855;50.934;6.958;2023-04-03T13:05:22;2.50;;;1.13;;
3677;SDS011;1855;50.934;6.958;2023-04-03T13:07:52;1.88;;;0.85;;
3677;SDS011;1855;50.934;6.958;2023-04-03T13:10:24;2.00;;;0.90;;
3677;SDS011;1855;50.934;6.958;2023-04-03T13:12:51;1.88;;;1.00;;
3677;SDS011;1855;50.934;6.958;2023-04-03T13:15:21;2.83;;;1.10;;
3677;SDS011;1855;50.934;6.958;2023-04-03T13:17:50;1.80;;;1.10;;
3677;SDS011;1855;50.934;6.958;2023-04-03T13:20:19;1.77;;;1.00;;
3677;SDS011;1855;50.934;6.958;2023-04-03T13:22:52;1.90;;;1.10;;
3677;SDS011;1855;50.934;6.958;2023-04-03T13:25:23;2.03;;;1.08;;
3677;SDS011;1855;50.934;6.958;2023-04-03T13:27:52;1.60;;;1.00;;
3677;SDS011;1855;50.934;6.958;2023-04-03T13:30:24;2.45;;;1.20;;
3677;SDS011;1855;50.934;6.958;2023-04-03T13:32:54;1.33;;;1.23;;
3677;SDS011;1855;50.934;6.958;2023-04-03T13:35:28;1.80;;;1.40;;
3677;SDS011;1855;50.934;6.958;2023-04-03T13:38:01;2.20;;;1.20;;
3677;SDS011;1855;50.934;6.958;2023-04-03T13:40:31;2.95;;;1.05;;
3677;SDS011;1855;50.934;6.958;2023-04-03T13:42:58;2.10;;;1.00;;
3677;SDS011;1855;50.934;6.958;2023-04-03T13:45:31;1.33;;;1.00;;
3677;SDS011;1855;50.934;6.958;2023-04-03T13:48:09;1.60;;;0.90;;
3677;SDS011;1855;50.934;6.958;2023-04-03T13:50:53;2.00;;;1.33;;
3677;SDS011;1855;50.934;6.958;2023-04-03T13:53:26;1.50;;;1.00;;
3677;SDS011;1855;50.934;6.958;2023-04-03T13:55:59;2.80;;;1.10;;
3677;SDS011;1855;50.934;6.958;2023-04-03T13:58:33;1.95;;;0.90;;
3677;SDS011;1855;50.934;6.958;2023-04-03T14:01:05;1.70;;;0.90;;
3677;SDS011;1855;50.934;6.958;2023-04-03T14:03:39;1.30;;;0.90;;
3677;SDS011;1855;50.934;6.958;2023-04-03T14:06:08;1.58;;;0.95;;
3677;SDS011;1855;50.934;6.958;2023-04-03T14:08:38;2.63;;;1.10;;
3677;SDS011;1855;50.934;6.958;2023-04-03T14:11:08;2.17;;;1.30;;
3677;SDS011;1855;50.934;6.958;2023-04-03T14:13:37;1.40;;;0.80;;
3677;SDS011;1855;50.934;6.958;2023-04-03T14:16:04;1.60;;;0.90;;
3677;SDS011;1855;50.934;6.958;2023-04-03T14:18:31;2.22;;;1.00;;
3677;SDS011;1855;50.934;6.958;2023-04-03T14:20:58;2.50;;;1.27;;
3677;SDS011;1855;50.934;6.958;2023-04-03T14:23:25;1.52;;;1.10;;
3677;SDS011;1855;50.934;6.958;2023-04-03T14:25:53;2.03;;;1.00;;
3677;SDS011;1855;50.934;6.958;2023-04-03T14:28:21;2.30;;;0.90;;
3677;SDS011;1855;50.934;6.958;2023-04-03T14:30:48;1.38;;;0.90;;
3677;SDS011;1855;50.934;6.958;2023-04-03T14:33:17;2.58;;;0.90;;
3677;SDS011;1855;50.934;6.958;2023-04-03T14:35:46;1.13;;;0.80;;
3677;SDS011;1855;50.934;6.958;2023-04-03T14:38:20;1.40;;;1.00;;
3677;SDS011;1855;50.934;6.958;2023-04-03T14:40:48;1.55;;;0.88;;
3677;SDS011;1855;50.934;6.958;2023-04-03T14:43:17;1.25;;;0.90;;
3677;SDS011;1855;50.934;6.958;2023-04-03T14:45:45;1.60;;;1.00;;
3677;SDS011;1855;50.934;6.958;2023-04-03T14:48:12;1.58;;;0.80;;
3677;SDS011;1855;50.934;6.958;2023-04-03T14:50:44;1.85;;;0.88;;
3677;SDS011;1855;50.934;6.958;2023-04-03T14:53:11;1.48;;;0.80;;
3677;SDS011;1855;50.934;6.958;2023-04-03T14:55:39;1.10;;;0.83;;
3677;SDS011;1855;50.934;6.958;2023-04-03T14:58:08;1.50;;;0.70;;
3677;SDS011;1855;50.934;6.958;2023-04-03T15:00:39;1.80;;;1.10;;
3677;SDS011;1855;50.934;6.958;2023-04-03T15:03:06;1.13;;;1.00;;
3677;SDS011;1855;50.934;6.958;2023-04-03T15:05:36;1.63;;;0.70;;
3677;SDS011;1855;50.934;6.958;2023-04-03T15:08:03;1.20;;;0.70;;
3677;SDS011;1855;50.934;6.958;2023-04-03T15:10:30;1.58;;;0.88;;
3677;SDS011;1855;50.934;6.958;2023-04-03T15:12:57;0.95;;;0.70;;
3677;SDS011;1855;50.934;6.958;2023-04-03T15:15:27;1.08;;;0.70;;
3677;SDS011;1855;50.934;6.958;2023-04-03T15:17:56;1.10;;;0.90;;
3677;SDS011;1855;50.934;6.958;2023-04-03T15:20:24;1.15;;;0.80;;
3677;SDS011;1855;50.934;6.958;2023-04-03T15:22:52;4.07;;;1.00;;
3677;SDS011;1855;50.934;6.958;2023-04-03T15:25:21;1.55;;;0.80;;
3677;SDS011;1855;50.934;6.958;2023-04-03T15:27:47;1.77;;;0.80;;
3677;SDS011;1855;50.934;6.958;2023-04-03T15:30:15;1.60;;;0.80;;
3677;SDS011;1855;50.934;6.958;2023-04-03T15:32:43;1.13;;;0.90;;
3677;SDS011;1855;50.934;6.958;2023-04-03T15:35:11;1.83;;;1.00;;
3677;SDS011;1855;50.934;6.958;2023-04-03T15:37:38;1.30;;;0.80;;
3677;SDS011;1855;50.934;6.958;2023-04-03T15:40:05;1.02;;;0.90;;
3677;SDS011;1855;50.934;6.958;2023-04-03T15:42:33;1.02;;;0.70;;
3677;SDS011;1855;50.934;6.958;2023-04-03T15:45:00;1.02;;;0.70;;
3677;SDS011;1855;50.934;6.958;2023-04-03T15:47:27;1.30;;;0.80;;
3677;SDS011;1855;50.934;6.958;2023-04-03T15:49:54;1.40;;;0.80;;